createdAt,value
2018-09-12T00:00:03.317Z,71.37
2018-09-12T00:01:09.537Z,71.56
2018-09-12T00:02:15.765Z,71.00
2018-09-12T00:03:22.038Z,71.26
2018-09-12T00:04:28.312Z,70.23
2018-09-12T00:05:34.569Z,70.73
2018-09-12T00:06:40.785Z,69.71
2018-09-12T00:07:47.041Z,71.15
2018-09-12T00:08:53.325Z,70.47
2018-09-12T00:09:59.548Z,70.86
2018-09-12T00:11:06.763Z,70.86
2018-09-12T00:12:13.039Z,69.69
2018-09-12T00:13:19.267Z,70.46
2018-09-12T00:14:25.514Z,70.48
2018-09-12T00:15:31.780Z,71.07
2018-09-12T00:16:38.044Z,69.72
2018-09-12T00:17:44.277Z,70.22
2018-09-12T00:18:50.538Z,69.28
2018-09-12T00:19:56.783Z,70.06
2018-09-12T00:21:03.095Z,70.30
2018-09-12T00:22:09.586Z,69.49
2018-09-12T00:23:15.881Z,69.04
2018-09-12T00:24:22.111Z,69.46
2018-09-12T00:25:28.349Z,68.70
2018-09-12T00:26:34.637Z,68.74
2018-09-12T00:27:40.908Z,69.61
2018-09-12T00:28:47.161Z,69.38
2018-09-12T00:29:53.408Z,69.95
2018-09-12T00:30:59.311Z,69.80
2018-09-12T00:32:05.573Z,69.83
2018-09-12T00:33:11.813Z,69.97
2018-09-12T00:34:18.044Z,69.62
2018-09-12T00:35:24.345Z,69.33
2018-09-12T00:36:30.594Z,69.85
2018-09-12T00:37:36.871Z,70.05
2018-09-12T00:38:43.117Z,71.26
2018-09-12T00:39:49.370Z,71.46
2018-09-12T00:40:55.615Z,71.57
2018-09-12T00:42:01.888Z,69.88
2018-09-12T00:43:07.796Z,70.59
2018-09-12T00:44:14.042Z,69.92
2018-09-12T00:45:20.284Z,70.16
2018-09-12T00:46:26.529Z,69.81
2018-09-12T00:47:32.796Z,69.64
2018-09-12T00:48:39.071Z,69.45
2018-09-12T00:49:46.249Z,69.51
2018-09-12T00:50:52.522Z,69.87
2018-09-12T00:51:58.798Z,69.76
2018-09-12T00:53:05.091Z,69.62
2018-09-12T00:54:11.356Z,70.91
2018-09-12T00:55:17.592Z,71.26
2018-09-12T00:56:23.813Z,72.44
2018-09-12T00:57:30.045Z,72.84
2018-09-12T00:58:36.330Z,72.84
2018-09-12T00:59:42.561Z,73.44
2018-09-12T01:00:48.795Z,73.12
2018-09-12T01:01:55.028Z,73.68
2018-09-12T01:03:01.286Z,74.09
2018-09-12T01:04:07.524Z,73.77
2018-09-12T01:05:13.793Z,74.35
2018-09-12T01:06:20.049Z,74.10
2018-09-12T01:07:26.281Z,73.46
2018-09-12T01:08:32.582Z,73.89
2018-09-12T01:09:38.568Z,73.64
2018-09-12T01:10:44.533Z,73.78
2018-09-12T01:11:50.757Z,73.95
2018-09-12T01:12:57.005Z,73.80
2018-09-12T01:14:03.290Z,72.84
2018-09-12T01:15:09.558Z,73.20
2018-09-12T01:16:15.834Z,73.42
2018-09-12T01:17:22.086Z,73.58
2018-09-12T01:18:28.696Z,74.05
2018-09-12T01:19:34.955Z,74.09
2018-09-12T01:20:41.210Z,74.38
2018-09-12T01:21:47.439Z,74.94
2018-09-12T01:22:53.724Z,74.56
2018-09-12T01:24:00.014Z,74.92
2018-09-12T01:25:06.236Z,75.95
2018-09-12T01:26:12.472Z,75.77
2018-09-12T01:27:18.697Z,75.93
2018-09-12T01:28:24.968Z,76.11
2018-09-12T01:29:31.247Z,75.50
2018-09-12T01:30:37.489Z,75.15
2018-09-12T01:31:43.699Z,75.67
2018-09-12T01:32:49.933Z,76.06
2018-09-12T01:33:56.198Z,76.96
2018-09-12T01:35:02.476Z,76.50
2018-09-12T01:36:08.772Z,77.40
2018-09-12T01:37:15.693Z,77.71
2018-09-12T01:38:21.673Z,78.51
2018-09-12T01:39:28.095Z,77.03
2018-09-12T01:40:34.336Z,77.56
2018-09-12T01:41:40.596Z,77.44
2018-09-12T01:42:46.571Z,77.95
2018-09-12T01:43:52.798Z,76.94
2018-09-12T01:44:59.084Z,76.78
2018-09-12T01:46:04.359Z,77.05
2018-09-12T01:47:10.591Z,77.68
2018-09-12T01:48:16.877Z,77.54
2018-09-12T01:49:23.170Z,77.10
2018-09-12T01:50:29.437Z,77.11
2018-09-12T01:51:35.665Z,76.44
2018-09-12T01:52:41.738Z,76.23
2018-09-12T01:53:47.996Z,77.11
2018-09-12T01:54:54.266Z,77.13
2018-09-12T01:56:00.532Z,77.25
2018-09-12T01:57:06.787Z,78.01
2018-09-12T01:58:12.421Z,78.09
2018-09-12T01:59:18.392Z,78.33
2018-09-12T02:00:24.425Z,78.82
2018-09-12T02:01:30.693Z,79.38
2018-09-12T02:02:36.943Z,79.35
2018-09-12T02:03:43.194Z,79.35
2018-09-12T02:04:49.421Z,79.97
2018-09-12T02:05:55.078Z,79.75
2018-09-12T02:07:01.344Z,80.20
2018-09-12T02:08:07.604Z,80.44
2018-09-12T02:09:13.840Z,78.15
2018-09-12T02:10:21.058Z,79.61
2018-09-12T02:11:27.270Z,78.10
2018-09-12T02:12:33.545Z,76.34
2018-09-12T02:13:39.851Z,77.12
2018-09-12T02:14:46.104Z,77.13
2018-09-12T02:15:52.402Z,75.90
2018-09-12T02:16:58.652Z,75.55
2018-09-12T02:18:04.924Z,74.66
2018-09-12T02:19:11.216Z,75.27
2018-09-12T02:20:17.475Z,74.46
2018-09-12T02:21:23.727Z,75.35
2018-09-12T02:22:29.993Z,74.42
2018-09-12T02:23:36.300Z,74.44
2018-09-12T02:24:42.310Z,74.33
2018-09-12T02:25:48.265Z,74.61
2018-09-12T02:26:54.285Z,74.92
2018-09-12T02:28:00.511Z,75.11
2018-09-12T02:29:06.788Z,72.39
2018-09-12T02:30:12.886Z,72.10
2018-09-12T02:31:19.135Z,71.53
2018-09-12T02:32:25.386Z,71.37
2018-09-12T02:33:31.445Z,72.64
2018-09-12T02:34:37.704Z,72.05
2018-09-12T02:35:43.753Z,72.86
2018-09-12T02:36:49.661Z,73.12
2018-09-12T02:37:55.917Z,73.07
2018-09-12T02:39:02.161Z,73.83
2018-09-12T02:40:07.710Z,72.79
2018-09-12T02:41:14.007Z,74.72
2018-09-12T02:42:20.269Z,73.51
2018-09-12T02:43:26.486Z,72.71
2018-09-12T02:44:32.707Z,72.10
2018-09-12T02:45:39.010Z,72.77
2018-09-12T02:46:45.245Z,73.02
2018-09-12T02:47:51.479Z,73.08
2018-09-12T02:48:57.752Z,72.84
2018-09-12T02:50:03.657Z,72.64
2018-09-12T02:51:09.929Z,72.83
2018-09-12T02:52:16.182Z,73.60
2018-09-12T02:53:22.449Z,74.24
2018-09-12T02:54:28.750Z,73.87
2018-09-12T02:55:35.063Z,72.99
2018-09-12T02:56:41.276Z,73.18
2018-09-12T02:57:47.524Z,72.34
2018-09-12T02:58:53.784Z,72.50
2018-09-12T03:00:00.011Z,72.66
2018-09-12T03:01:05.966Z,71.47
2018-09-12T03:02:12.210Z,71.58
2018-09-12T03:03:22.807Z,73.36
2018-09-12T03:04:29.025Z,73.93
2018-09-12T03:05:34.992Z,73.62
2018-09-12T03:06:41.259Z,74.38
2018-09-12T03:07:47.562Z,74.47
2018-09-12T03:08:53.981Z,75.04
2018-09-12T03:10:00.209Z,75.67
2018-09-12T03:11:06.327Z,75.77
2018-09-12T03:12:12.556Z,75.30
2018-09-12T03:13:18.814Z,74.79
2018-09-12T03:14:25.052Z,74.60
2018-09-12T03:15:31.010Z,74.59
2018-09-12T03:16:37.298Z,74.56
2018-09-12T03:17:43.277Z,74.65
2018-09-12T03:18:49.189Z,74.42
2018-09-12T03:19:55.474Z,74.08
2018-09-12T03:21:01.923Z,74.46
2018-09-12T03:22:08.279Z,73.58
2018-09-12T03:23:15.491Z,72.96
2018-09-12T03:24:21.539Z,72.90
2018-09-12T03:25:27.808Z,73.00
2018-09-12T03:26:33.877Z,72.78
2018-09-12T03:27:39.776Z,72.69
2018-09-12T03:28:46.022Z,72.63
2018-09-12T03:29:52.270Z,72.94
2018-09-12T03:30:58.502Z,73.65
2018-09-12T03:32:04.789Z,73.73
2018-09-12T03:33:11.038Z,75.21
2018-09-12T03:34:17.303Z,75.38
2018-09-12T03:35:23.543Z,76.69
2018-09-12T03:36:29.808Z,76.35
2018-09-12T03:37:36.044Z,75.67
2018-09-12T03:38:42.276Z,75.18
2018-09-12T03:39:48.581Z,74.42
2018-09-12T03:40:54.836Z,74.28
2018-09-12T03:42:01.140Z,73.72
2018-09-12T03:43:07.023Z,73.96
2018-09-12T03:44:13.263Z,74.62
2018-09-12T03:45:19.510Z,74.01
2018-09-12T03:46:25.805Z,75.39
2018-09-12T03:47:32.045Z,75.41
2018-09-12T03:48:38.377Z,75.80
2018-09-12T03:49:44.653Z,76.24
2018-09-12T03:50:50.863Z,76.40
2018-09-12T03:51:57.139Z,76.72
2018-09-12T03:53:03.460Z,77.08
2018-09-12T03:54:09.696Z,76.80
2018-09-12T03:55:15.974Z,76.88
2018-09-12T03:56:22.264Z,76.82
2018-09-12T03:57:28.522Z,76.41
2018-09-12T03:58:34.760Z,75.74
2018-09-12T03:59:41.033Z,75.52
2018-09-12T04:00:47.273Z,75.41
2018-09-12T04:01:53.636Z,74.95
2018-09-12T04:02:59.624Z,74.98
2018-09-12T04:04:05.518Z,75.41
2018-09-12T04:05:11.770Z,75.74
2018-09-12T04:06:18.008Z,76.38
2018-09-12T04:07:24.284Z,76.91
2018-09-12T04:08:30.501Z,77.15
2018-09-12T04:09:36.721Z,77.31
2018-09-12T04:10:42.984Z,76.69
2018-09-12T04:11:49.257Z,76.32
2018-09-12T04:12:55.515Z,75.79
2018-09-12T04:14:01.774Z,75.71
2018-09-12T04:15:07.338Z,75.99
2018-09-12T04:16:13.552Z,76.07
2018-09-12T04:17:19.872Z,76.67
2018-09-12T04:18:26.119Z,77.29
2018-09-12T04:19:32.381Z,77.22
2018-09-12T04:20:38.606Z,77.37
2018-09-12T04:21:44.935Z,77.57
2018-09-12T04:22:51.177Z,77.93
2018-09-12T04:23:57.456Z,77.76
2018-09-12T04:25:03.376Z,77.75
2018-09-12T04:26:09.450Z,78.06
2018-09-12T04:27:15.713Z,78.81
2018-09-12T04:28:26.261Z,78.81
2018-09-12T04:29:32.514Z,77.78
2018-09-12T04:30:38.817Z,77.07
2018-09-12T04:31:45.213Z,76.97
2018-09-12T04:32:51.438Z,76.36
2018-09-12T04:33:57.672Z,76.12
2018-09-12T04:35:03.933Z,76.91
2018-09-12T04:36:10.245Z,76.37
2018-09-12T04:37:16.550Z,77.44
2018-09-12T04:38:22.789Z,77.53
2018-09-12T04:39:29.095Z,77.63
2018-09-12T04:40:35.357Z,77.83
2018-09-12T04:41:41.630Z,77.41
2018-09-12T04:42:47.978Z,76.97
2018-09-12T04:43:54.115Z,76.98
2018-09-12T04:45:00.340Z,77.42
2018-09-12T04:46:06.621Z,77.65
2018-09-12T04:47:12.636Z,77.67
2018-09-12T04:48:19.173Z,77.30
2018-09-12T04:49:25.271Z,77.35
2018-09-12T04:50:31.609Z,77.03
2018-09-12T04:51:37.857Z,77.16
2018-09-12T04:52:44.097Z,77.69
2018-09-12T04:53:50.388Z,78.20
2018-09-12T04:54:56.698Z,78.75
2018-09-12T04:56:02.964Z,78.94
2018-09-12T04:57:09.197Z,78.77
2018-09-12T04:58:15.440Z,78.72
2018-09-12T04:59:21.663Z,78.62
2018-09-12T05:00:27.907Z,78.99
2018-09-12T05:01:34.186Z,79.44
2018-09-12T05:02:40.457Z,80.96
2018-09-12T05:03:46.680Z,80.82
2018-09-12T05:04:52.924Z,81.18
2018-09-12T05:05:59.175Z,80.49
2018-09-12T05:07:05.466Z,80.89
2018-09-12T05:08:11.746Z,80.88
2018-09-12T05:09:18.012Z,81.34
2018-09-12T05:10:24.276Z,81.75
2018-09-12T05:11:30.552Z,82.37
2018-09-12T05:12:36.814Z,82.20
2018-09-12T05:13:43.089Z,82.38
2018-09-12T05:14:49.337Z,82.48
2018-09-12T05:15:55.629Z,81.97
2018-09-12T05:17:01.835Z,81.77
2018-09-12T05:18:08.091Z,82.01
2018-09-12T05:19:14.307Z,81.68
2018-09-12T05:20:20.596Z,81.13
2018-09-12T05:21:26.980Z,81.59
2018-09-12T05:22:33.199Z,81.82
2018-09-12T05:23:39.501Z,82.28
2018-09-12T05:24:45.716Z,81.70
2018-09-12T05:25:51.976Z,82.02
2018-09-12T05:26:58.228Z,82.56
2018-09-12T05:28:04.499Z,83.04
2018-09-12T05:29:10.771Z,83.48
2018-09-12T05:30:17.025Z,83.59
2018-09-12T05:31:23.268Z,83.47
2018-09-12T05:32:29.568Z,81.86
2018-09-12T05:33:35.806Z,80.09
2018-09-12T05:34:42.042Z,80.40
2018-09-12T05:35:48.294Z,79.92
2018-09-12T05:36:54.592Z,78.64
2018-09-12T05:38:00.865Z,77.97
2018-09-12T05:39:06.188Z,78.17
2018-09-12T05:40:12.435Z,77.59
2018-09-12T05:41:18.755Z,77.47
2018-09-12T05:42:25.020Z,75.88
2018-09-12T05:43:31.261Z,74.99
2018-09-12T05:44:37.492Z,75.21
2018-09-12T05:45:43.739Z,73.71
2018-09-12T05:46:49.997Z,73.08
2018-09-12T05:47:56.255Z,74.02
2018-09-12T05:49:02.497Z,73.29
2018-09-12T05:50:08.842Z,72.38
2018-09-12T05:51:15.232Z,73.32
2018-09-12T05:52:21.601Z,71.76
2018-09-12T05:53:27.869Z,72.23
2018-09-12T05:54:34.096Z,71.75
2018-09-12T05:55:40.423Z,71.37
2018-09-12T05:56:46.656Z,71.02
2018-09-12T05:57:52.905Z,70.94
2018-09-12T05:58:59.158Z,70.38
2018-09-12T06:00:04.453Z,70.79
2018-09-12T06:01:10.714Z,70.84
2018-09-12T06:02:16.992Z,70.70
2018-09-12T06:03:23.607Z,70.25
2018-09-12T06:04:29.847Z,69.08
2018-09-12T06:05:36.109Z,68.41
2018-09-12T06:06:42.363Z,68.01
2018-09-12T06:07:48.613Z,67.47
2018-09-12T06:08:54.849Z,67.26
2018-09-12T06:10:01.119Z,67.01
2018-09-12T06:11:07.391Z,66.79
2018-09-12T06:12:13.644Z,66.71
2018-09-12T06:13:19.930Z,66.56
2018-09-12T06:14:26.171Z,65.83
2018-09-12T06:15:32.392Z,65.39
2018-09-12T06:16:38.690Z,65.32
2018-09-12T06:17:44.910Z,65.65
2018-09-12T06:18:50.955Z,65.42
2018-09-12T06:19:56.888Z,65.02
2018-09-12T06:21:03.164Z,64.54
2018-09-12T06:22:09.400Z,65.08
2018-09-12T06:23:15.742Z,65.42
2018-09-12T06:24:22.059Z,65.22
2018-09-12T06:25:28.308Z,65.08
2018-09-12T06:26:34.603Z,64.73
2018-09-12T06:27:40.882Z,64.35
2018-09-12T06:28:47.146Z,64.22
2018-09-12T06:29:53.375Z,63.80
2018-09-12T06:30:59.621Z,62.98
2018-09-12T06:32:05.979Z,62.99
2018-09-12T06:33:12.266Z,62.38
2018-09-12T06:34:18.526Z,62.67
2018-09-12T06:35:24.758Z,62.64
2018-09-12T06:36:31.016Z,62.43
2018-09-12T06:37:37.235Z,62.47
2018-09-12T06:38:43.539Z,61.64
2018-09-12T06:39:49.958Z,61.19
2018-09-12T06:40:56.268Z,60.85
2018-09-12T06:42:02.562Z,60.54
2018-09-12T06:43:09.035Z,60.61
2018-09-12T06:44:15.386Z,60.37
2018-09-12T06:45:21.664Z,60.94
2018-09-12T06:46:27.929Z,60.34
2018-09-12T06:47:34.224Z,59.76
2018-09-12T06:48:40.487Z,60.31
2018-09-12T06:49:46.485Z,60.23
2018-09-12T06:50:52.483Z,61.04
2018-09-12T06:51:58.743Z,60.17
2018-09-12T06:53:04.999Z,60.76
2018-09-12T06:54:11.301Z,60.19
2018-09-12T06:55:17.583Z,60.48
2018-09-12T06:56:23.628Z,60.58
2018-09-12T06:57:29.862Z,60.12
2018-09-12T06:58:35.854Z,59.60
2018-09-12T06:59:42.090Z,59.89
2018-09-12T07:00:48.467Z,59.54
2018-09-12T07:01:54.790Z,58.68
2018-09-12T07:03:01.055Z,58.35
2018-09-12T07:04:07.344Z,58.44
2018-09-12T07:05:13.572Z,58.29
2018-09-12T07:06:19.455Z,57.48
2018-09-12T07:07:25.731Z,57.84
2018-09-12T07:08:32.012Z,57.61
2018-09-12T07:09:38.844Z,57.67
2018-09-12T07:10:45.265Z,56.91
2018-09-12T07:11:51.557Z,57.46
2018-09-12T07:12:57.859Z,57.31
2018-09-12T07:14:04.173Z,57.58
2018-09-12T07:15:10.099Z,57.70
2018-09-12T07:16:16.377Z,57.27
2018-09-12T07:17:22.596Z,56.78
2018-09-12T07:18:28.856Z,56.28
2018-09-12T07:19:35.128Z,55.75
2018-09-12T07:20:41.381Z,56.17
2018-09-12T07:21:47.614Z,55.55
2018-09-12T07:22:53.961Z,55.19
2018-09-12T07:24:00.326Z,54.54
2018-09-12T07:25:05.845Z,54.38
2018-09-12T07:26:12.104Z,54.72
2018-09-12T07:27:18.353Z,54.28
2018-09-12T07:28:24.604Z,53.19
2018-09-12T07:29:30.818Z,53.18
2018-09-12T07:30:37.131Z,53.31
2018-09-12T07:31:43.252Z,53.73
2018-09-12T07:32:49.469Z,53.74
2018-09-12T07:33:55.704Z,53.25
2018-09-12T07:35:01.978Z,53.34
2018-09-12T07:36:08.200Z,52.94
2018-09-12T07:37:14.405Z,52.63
2018-09-12T07:38:20.757Z,53.03
2018-09-12T07:39:27.005Z,52.62
2018-09-12T07:40:33.305Z,52.49
2018-09-12T07:41:39.338Z,52.58
2018-09-12T07:42:45.744Z,52.76
2018-09-12T07:43:51.737Z,51.89
2018-09-12T07:44:57.945Z,52.13
2018-09-12T07:46:04.196Z,52.02
2018-09-12T07:47:10.424Z,51.10
2018-09-12T07:48:16.650Z,51.31
2018-09-12T07:49:22.885Z,51.04
2018-09-12T07:50:28.880Z,50.74
2018-09-12T07:51:35.128Z,50.95
2018-09-12T07:52:41.334Z,50.72
2018-09-12T07:53:47.543Z,50.78
2018-09-12T07:54:53.797Z,50.57
2018-09-12T07:55:59.823Z,50.45
2018-09-12T07:57:05.939Z,49.92
2018-09-12T07:58:12.201Z,50.48
2018-09-12T07:59:18.435Z,49.68
2018-09-12T08:00:24.697Z,50.15
2018-09-12T08:01:30.860Z,49.94
2018-09-12T08:02:37.080Z,49.54
2018-09-12T08:03:43.300Z,49.66
2018-09-12T08:04:49.522Z,49.57
2018-09-12T08:05:55.805Z,49.90
2018-09-12T08:07:02.057Z,49.64
2018-09-12T08:08:08.282Z,48.89
2018-09-12T08:09:14.548Z,48.88
2018-09-12T08:10:24.815Z,48.44
2018-09-12T08:11:31.072Z,48.51
2018-09-12T08:12:37.282Z,48.07
2018-09-12T08:13:43.529Z,48.38
2018-09-12T08:14:49.783Z,49.45
2018-09-12T08:15:56.009Z,48.58
2018-09-12T08:17:02.067Z,47.79
2018-09-12T08:18:08.459Z,47.59
2018-09-12T08:19:14.733Z,48.07
2018-09-12T08:20:20.950Z,47.83
2018-09-12T08:21:27.222Z,47.35
2018-09-12T08:22:33.188Z,47.54
2018-09-12T08:23:39.419Z,47.76
2018-09-12T08:24:45.381Z,47.36
2018-09-12T08:25:51.624Z,47.47
2018-09-12T08:26:57.541Z,46.68
2018-09-12T08:28:03.762Z,47.30
2018-09-12T08:29:10.019Z,47.34
2018-09-12T08:30:15.594Z,47.08
2018-09-12T08:31:21.886Z,46.99
2018-09-12T08:32:28.109Z,46.45
2018-09-12T08:33:34.321Z,46.80
2018-09-12T08:34:40.581Z,46.46
2018-09-12T08:35:46.800Z,46.15
2018-09-12T08:36:53.077Z,46.03
2018-09-12T08:37:59.288Z,45.91
2018-09-12T08:39:04.836Z,46.29
2018-09-12T08:40:10.837Z,45.96
2018-09-12T08:41:17.047Z,45.90
2018-09-12T08:42:23.346Z,46.13
2018-09-12T08:43:29.795Z,45.58
2018-09-12T08:44:36.014Z,45.95
2018-09-12T08:45:42.281Z,46.53
2018-09-12T08:46:48.182Z,46.13
2018-09-12T08:47:54.679Z,46.21
2018-09-12T08:49:00.596Z,46.24
2018-09-12T08:50:06.220Z,45.75
2018-09-12T08:51:12.448Z,45.76
2018-09-12T08:52:18.709Z,45.25
2018-09-12T08:53:24.952Z,45.76
2018-09-12T08:54:31.221Z,45.30
2018-09-12T08:55:37.493Z,44.81
2018-09-12T08:56:43.814Z,45.15
2018-09-12T08:57:50.236Z,45.19
2018-09-12T08:58:56.504Z,45.08
2018-09-12T09:00:02.628Z,45.28
2018-09-12T09:01:09.062Z,44.77
2018-09-12T09:02:15.317Z,44.47
2018-09-12T09:03:21.551Z,44.77
2018-09-12T09:04:27.476Z,44.50
2018-09-12T09:05:44.516Z,45.24
2018-09-12T09:06:50.779Z,44.93
2018-09-12T09:07:57.008Z,44.64
2018-09-12T09:09:03.223Z,44.79
2018-09-12T09:10:09.490Z,44.78
2018-09-12T09:11:15.728Z,44.62
2018-09-12T09:12:22.725Z,44.50
2018-09-12T09:13:28.971Z,44.05
2018-09-12T09:14:35.210Z,44.21
2018-09-12T09:15:41.432Z,43.70
2018-09-12T09:16:47.667Z,43.38
2018-09-12T09:17:53.961Z,43.85
2018-09-12T09:19:00.428Z,44.09
2018-09-12T09:20:06.884Z,44.12
2018-09-12T09:21:13.124Z,43.91
2018-09-12T09:22:19.393Z,44.42
2018-09-12T09:23:25.611Z,44.26
2018-09-12T09:24:31.845Z,44.25
2018-09-12T09:25:37.492Z,43.99
2018-09-12T09:26:43.737Z,43.47
2018-09-12T09:27:49.989Z,43.58
2018-09-12T09:28:56.206Z,43.32
2018-09-12T09:30:02.451Z,43.56
2018-09-12T09:31:08.664Z,43.73
2018-09-12T09:32:14.919Z,43.74
2018-09-12T09:33:21.170Z,43.65
2018-09-12T09:34:27.119Z,43.53
2018-09-12T09:35:33.541Z,42.68
2018-09-12T09:36:39.566Z,42.54
2018-09-12T09:37:45.520Z,42.76
2018-09-12T09:38:51.732Z,42.58
2018-09-12T09:39:57.664Z,42.36
2018-09-12T09:41:03.646Z,42.37
2018-09-12T09:42:09.632Z,41.73
2018-09-12T09:43:15.559Z,41.92
2018-09-12T09:44:21.579Z,41.58
2018-09-12T09:45:27.822Z,42.25
2018-09-12T09:46:34.067Z,42.04
2018-09-12T09:47:40.035Z,41.65
2018-09-12T09:48:46.251Z,41.42
2018-09-12T09:49:51.962Z,41.44
2018-09-12T09:50:57.906Z,41.04
2018-09-12T09:52:03.847Z,41.20
2018-09-12T09:53:10.174Z,41.14
2018-09-12T09:54:16.111Z,41.23
2018-09-12T09:55:22.364Z,41.01
2018-09-12T09:56:28.617Z,40.87
2018-09-12T09:57:34.323Z,40.93
2018-09-12T09:58:40.000Z,40.97
2018-09-12T09:59:45.715Z,41.01
2018-09-12T10:00:51.702Z,40.58
2018-09-12T10:03:29.241Z,40.65
2018-09-12T10:04:34.966Z,40.88
2018-09-12T10:05:40.956Z,40.88
2018-09-12T10:06:46.660Z,40.57
2018-09-12T10:07:52.405Z,40.82
2018-09-12T10:08:58.358Z,40.94
2018-09-12T10:10:03.703Z,40.49
2018-09-12T10:11:09.671Z,40.63
2018-09-12T10:12:15.635Z,39.82
2018-09-12T10:13:21.610Z,40.18
2018-09-12T10:14:27.557Z,39.56
2018-09-12T10:15:33.533Z,40.10
2018-09-12T10:16:39.480Z,40.13
2018-09-12T10:17:45.431Z,39.90
2018-09-12T10:18:51.364Z,39.63
2018-09-12T10:19:57.306Z,39.47
2018-09-12T10:21:03.233Z,38.91
2018-09-12T10:22:09.188Z,39.42
2018-09-12T10:23:15.184Z,39.42
2018-09-12T10:24:20.919Z,39.33
2018-09-12T10:25:26.656Z,39.63
2018-09-12T10:26:32.365Z,39.28
2018-09-12T10:27:38.566Z,39.31
2018-09-12T10:28:44.193Z,39.63
2018-09-12T10:29:50.130Z,39.68
2018-09-12T10:30:56.365Z,39.10
2018-09-12T10:32:02.312Z,39.33
2018-09-12T10:33:08.293Z,39.43
2018-09-12T10:34:14.279Z,39.62
2018-09-12T10:35:20.201Z,39.62
2018-09-12T10:36:25.853Z,39.18
2018-09-12T10:37:31.767Z,39.40
2018-09-12T10:38:37.760Z,39.36
2018-09-12T10:39:43.699Z,39.22
2018-09-12T10:40:49.653Z,39.29
2018-09-12T10:41:55.599Z,38.99
2018-09-12T10:43:01.529Z,38.74
2018-09-12T10:44:07.256Z,38.89
2018-09-12T10:45:13.225Z,38.60
2018-09-12T10:46:19.194Z,39.03
2018-09-12T10:47:25.116Z,39.08
2018-09-12T10:48:31.092Z,38.78
2018-09-12T10:49:37.039Z,38.72
2018-09-12T10:50:42.991Z,38.20
2018-09-12T10:51:48.923Z,38.39
2018-09-12T10:52:54.957Z,38.22
2018-09-12T10:54:00.931Z,38.06
2018-09-12T10:55:06.518Z,38.13
2018-09-12T10:56:12.481Z,38.04
2018-09-12T10:57:18.426Z,38.14
2018-09-12T10:58:24.392Z,38.02
2018-09-12T10:59:30.322Z,37.94
2018-09-12T11:00:36.282Z,37.67
2018-09-12T11:01:42.234Z,37.72
2018-09-12T11:02:48.164Z,37.05
2018-09-12T11:03:53.761Z,37.47
2018-09-12T11:04:59.689Z,37.64
2018-09-12T11:06:05.635Z,37.79
2018-09-12T11:07:11.586Z,37.60
2018-09-12T11:08:17.555Z,37.55
2018-09-12T11:09:23.536Z,37.85
2018-09-12T11:10:29.474Z,37.01
2018-09-12T11:11:35.428Z,37.47
2018-09-12T11:12:41.364Z,37.76
2018-09-12T11:13:47.086Z,37.03
2018-09-12T11:14:53.004Z,37.19
2018-09-12T11:15:58.944Z,37.01
2018-09-12T11:17:04.565Z,36.73
2018-09-12T11:18:10.507Z,37.04
2018-09-12T11:19:16.455Z,37.09
2018-09-12T11:20:22.415Z,36.47
2018-09-12T11:21:28.340Z,36.42
2018-09-12T11:22:34.308Z,36.29
2018-09-12T11:23:40.253Z,36.50
2018-09-12T11:24:46.224Z,36.68
2018-09-12T11:25:52.184Z,36.84
2018-09-12T11:26:58.106Z,36.35
2018-09-12T11:28:03.695Z,36.52
2018-09-12T11:29:09.696Z,36.40
2018-09-12T11:30:15.624Z,36.34
2018-09-12T11:31:21.565Z,36.39
2018-09-12T11:32:27.524Z,36.23
2018-09-12T11:33:33.505Z,36.68
2018-09-12T11:34:39.471Z,36.40
2018-09-12T11:35:45.396Z,36.84
2018-09-12T11:36:51.330Z,36.09
2018-09-12T11:37:57.260Z,35.68
2018-09-12T11:39:03.010Z,36.13
2018-09-12T11:40:10.429Z,35.93
2018-09-12T11:41:16.839Z,35.93
2018-09-12T11:42:22.777Z,35.77
2018-09-12T11:43:28.707Z,36.39
2018-09-12T11:44:34.663Z,36.19
2018-09-12T11:45:40.616Z,35.81
2018-09-12T11:46:46.544Z,34.83
2018-09-12T11:47:52.506Z,34.93
2018-09-12T11:48:58.529Z,35.08
2018-09-12T11:50:04.354Z,35.13
2018-09-12T11:51:09.998Z,34.68
2018-09-12T11:52:15.938Z,34.66
2018-09-12T11:53:21.907Z,34.91
2018-09-12T11:54:27.878Z,35.33
2018-09-12T11:55:33.974Z,35.50
2018-09-12T11:56:40.065Z,34.82
2018-09-12T11:57:46.029Z,34.74
2018-09-12T11:58:51.976Z,33.99
2018-09-12T11:59:57.965Z,34.02
2018-09-12T12:01:03.924Z,34.08
2018-09-12T12:02:09.924Z,34.36
2018-09-12T12:03:16.147Z,34.19
2018-09-12T12:04:22.132Z,35.11
2018-09-12T12:05:27.855Z,34.22
2018-09-12T12:06:33.786Z,34.79
2018-09-12T12:07:39.713Z,34.87
2018-09-12T12:08:45.627Z,34.65
2018-09-12T12:09:51.372Z,34.64
2018-09-12T12:10:57.363Z,34.63
2018-09-12T12:12:03.296Z,35.44
2018-09-12T12:13:09.243Z,34.64
2018-09-12T12:14:15.178Z,34.62
2018-09-12T12:15:21.424Z,34.48
2018-09-12T12:16:27.566Z,33.79
2018-09-12T12:17:33.540Z,33.43
2018-09-12T12:18:39.568Z,33.32
2018-09-12T12:19:45.561Z,33.52
2018-09-12T12:20:51.564Z,33.56
2018-09-12T12:21:57.561Z,33.41
2018-09-12T12:23:03.568Z,33.46
2018-09-12T12:24:09.729Z,33.99
2018-09-12T12:25:15.696Z,34.25
2018-09-12T12:26:21.683Z,33.36
2018-09-12T12:27:27.621Z,33.87
2018-09-12T12:28:33.593Z,33.73
2018-09-12T12:29:39.239Z,33.87
2018-09-12T12:30:45.477Z,33.23
2018-09-12T12:31:51.466Z,32.63
2018-09-12T12:32:57.441Z,32.89
2018-09-12T12:34:03.459Z,33.41
2018-09-12T12:35:09.460Z,32.59
2018-09-12T12:36:15.392Z,33.23
2018-09-12T12:37:21.372Z,33.38
2018-09-12T12:38:27.332Z,33.57
2018-09-12T12:39:32.928Z,33.41
2018-09-12T12:40:38.892Z,33.41
2018-09-12T12:41:44.836Z,33.85
2018-09-12T12:42:50.789Z,33.58
2018-09-12T12:43:56.722Z,33.65
2018-09-12T12:45:02.452Z,33.45
2018-09-12T12:46:08.392Z,32.96
2018-09-12T12:47:14.361Z,33.01
2018-09-12T12:48:20.377Z,33.03
2018-09-12T12:49:26.321Z,32.44
2018-09-12T12:50:32.296Z,33.00
2018-09-12T12:51:38.242Z,32.31
2018-09-12T12:52:44.186Z,32.60
2018-09-12T12:53:50.159Z,32.71
2018-09-12T12:54:56.029Z,32.55
2018-09-12T12:56:02.001Z,32.68
2018-09-12T12:57:07.947Z,32.60
2018-09-12T12:58:13.890Z,32.44
2018-09-12T12:59:19.864Z,32.15
2018-09-12T13:00:25.826Z,32.35
2018-09-12T13:01:31.764Z,32.45
2018-09-12T13:02:37.702Z,32.31
2018-09-12T13:03:43.680Z,32.37
2018-09-12T13:04:49.628Z,31.54
2018-09-12T13:05:55.614Z,31.90
2018-09-12T13:07:01.553Z,31.98
2018-09-12T13:08:07.538Z,31.81
2018-09-12T13:09:13.485Z,31.51
2018-09-12T13:10:19.741Z,31.36
2018-09-12T13:11:25.691Z,30.87
2018-09-12T13:12:31.653Z,31.34
2018-09-12T13:13:37.815Z,31.57
2018-09-12T13:14:43.841Z,31.61
2018-09-12T13:15:49.961Z,31.81
2018-09-12T13:16:55.876Z,30.31
2018-09-12T13:18:01.813Z,30.36
2018-09-12T13:19:07.796Z,30.54
2018-09-12T13:20:13.754Z,30.53
2018-09-12T13:21:19.781Z,31.31
2018-09-12T13:22:25.940Z,30.86
2018-09-12T13:23:31.914Z,30.55
2018-09-12T13:24:37.856Z,30.83
2018-09-12T13:25:43.845Z,30.24
2018-09-12T13:26:49.848Z,29.69
2018-09-12T13:27:56.565Z,30.21
2018-09-12T13:29:02.614Z,30.18
2018-09-12T13:30:08.624Z,30.08
2018-09-12T13:31:14.612Z,30.61
2018-09-12T13:32:21.451Z,29.85
2018-09-12T13:33:29.179Z,30.18
2018-09-12T13:34:37.616Z,29.84
2018-09-12T13:35:45.083Z,30.31
2018-09-12T13:36:51.448Z,29.79
2018-09-12T13:37:57.433Z,29.46
2018-09-12T13:39:03.288Z,29.02
2018-09-12T13:40:09.137Z,29.08
2018-09-12T13:41:15.153Z,29.24
2018-09-12T13:42:21.133Z,29.29
2018-09-12T13:43:27.080Z,29.64
2018-09-12T13:44:33.140Z,29.64
2018-09-12T13:45:39.254Z,29.29
2018-09-12T13:46:45.200Z,28.94
2018-09-12T13:47:51.161Z,29.71
2018-09-12T13:48:57.162Z,28.76
2018-09-12T13:50:02.774Z,28.88
2018-09-12T13:51:08.803Z,30.04
2018-09-12T13:52:14.761Z,28.88
2018-09-12T13:53:20.743Z,28.31
2018-09-12T13:54:26.732Z,29.06
2018-09-12T13:55:32.725Z,29.10
2018-09-12T13:56:38.735Z,28.65
2018-09-12T13:57:44.888Z,28.33
2018-09-12T13:58:50.893Z,27.70
2018-09-12T13:59:56.943Z,27.99
2018-09-12T14:01:02.955Z,28.13
2018-09-12T14:02:08.909Z,28.60
2018-09-12T14:03:14.924Z,28.35
2018-09-12T14:04:21.083Z,28.26
2018-09-12T14:05:27.019Z,28.63
2018-09-12T14:06:33.005Z,28.58
2018-09-12T14:07:38.952Z,28.27
2018-09-12T14:08:44.979Z,28.35
2018-09-12T14:09:51.140Z,28.39
2018-09-12T14:10:57.097Z,28.29
2018-09-12T14:12:03.085Z,28.67
2018-09-12T14:13:09.048Z,28.36